Date,TemperatureHighF,TemperatureAvgF,TemperatureLowF,DewpointHighF,DewpointAvgF,DewpointLowF,HumidityHigh,HumidityAvg,HumidityLow,PressureMaxIn,PressureMinIn,WindSpeedMaxMPH,WindSpeedAvgMPH,GustSpeedMaxMPH,PrecipitationSumIn
2013-1-1,39,33,21,11,3,-9,36,28,19,29.97,29.80,28,6,28,0.00
2013-1-2,31,22,14,0,-6,-13,37,28,20,30.15,29.94,19,4,19,0.00
2013-1-3,30,20,9,1,-8,-18,42,28,20,30.18,30.03,15,3,15,0.00
2013-1-4,38,30,20,10,5,1,44,34,23,30.03,29.88,19,5,19,0.00
2013-1-5,45,33,24,10,4,-3,49,30,17,30.24,29.94,21,4,21,0.04
2013-1-6,45,34,26,18,12,9,58,42,27,30.21,29.94,15,3,15,0.00
2013-1-7,42,32,22,24,9,-2,61,39,18,30.39,30.00,12,2,12,0.00
2013-1-8,47,33,19,19,11,6,66,43,22,30.39,30.30,20,3,20,0.00
2013-1-9,44,34,22,24,18,12,71,53,32,30.39,30.09,22,3,22,0.00
2013-1-10,47,39,30,18,5,-2,41,25,14,30.53,30.15,24,4,24,0.00
2013-1-11,38,32,26,29,17,8,78,56,33,30.53,30.12,8,0,8,0.31
2013-1-12,45,40,35,40,35,25,85,83,78,30.18,30.09,7,1,7,0.08
2013-1-13,47,43,38,43,38,34,86,82,76,30.15,30.00,11,1,11,0.00
2013-1-14,55,46,35,51,32,9,87,62,29,30.30,29.91,16,3,16,0.04
2013-1-15,37,34,31,21,11,6,59,39,29,30.33,30.21,10,2,10,0.00
2013-1-16,34,32,30,26,22,7,77,68,33,30.21,29.85,12,2,12,0.04
2013-1-17,47,35,27,26,15,-3,78,47,23,30.09,29.88,17,3,17,0.24
2013-1-18,30,24,18,-3,-10,-16,26,21,16,30.45,30.03,18,5,18,0.04
2013-1-19,44,36,23,10,3,-10,32,24,18,30.36,29.88,15,5,17,0.04
2013-1-20,51,40,26,13,4,-14,38,23,13,30.00,29.65,28,7,30,0.04
2013-1-21,31,25,20,9,-5,-17,54,28,16,30.06,29.80,20,2,20,0.04
2013-1-22,24,18,10,8,-12,-24,57,26,17,30.12,29.77,28,8,30,0.04
2013-1-23,20,12,6,-15,-22,-27,22,19,17,30.18,30.09,21,6,21,0.04
2013-1-24,22,12,2,-14,-23,-31,24,19,17,30.30,30.12,23,4,23,0.04
2013-1-25,25,16,9,0,-16,-25,45,23,17,30.36,30.03,15,2,15,0.00
2013-1-26,26,18,11,1,-9,-18,48,31,19,30.33,30.00,18,3,18,0.00
2013-1-27,34,20,8,0,-14,-23,46,21,15,30.47,30.30,17,2,17,0.00
2013-1-28,140,27,18,25,10,-14,74,51,23,30.47,29.97,11,2,11,0.00
2013-1-29,37,35,32,30,27,25,79,74,65,30.15,29.97,7,1,7,0.16
2013-1-30,56,45,34,52,39,28,87,81,77,30.09,29.38,21,3,21,0.00
2013-1-31,59,45,27,52,18,-10,87,41,14,29.71,29.03,36,11,36,1.26
2013-2-1,34,26,21,-6,-11,-16,22,19,17,30.15,29.71,29,8,29,0.00
2013-2-2,32,24,17,5,-9,-15,46,24,15,30.24,30.03,20,6,21,0.04
2013-2-3,34,24,16,9,1,-8,58,38,20,30.03,29.77,12,1,12,0.04
2013-2-4,33,25,20,7,-5,-14,51,28,18,29.94,29.77,22,5,24,0.04
2013-2-5,30,25,20,13,6,-10,57,44,25,29.97,29.88,6,0,6,0.04
2013-2-6,41,31,23,21,5,-14,66,37,16,30.33,29.88,20,3,21,0.04
2013-2-7,33,25,18,-6,-12,-17,25,19,15,30.50,30.30,9,2,9,0.04
2013-2-8,140,28,24,23,13,-7,77,57,24,30.36,29.62,23,5,23,0.04
2013-2-9,30,23,15,17,-2,-18,77,38,16,30.27,29.71,33,7,33,0.04
2013-2-10,42,24,10,-5,-13,-21,30,18,13,30.45,30.27,18,3,18,0.04
2013-2-11,43,33,22,36,21,-5,84,64,30,30.33,29.65,11,1,11,0.20
2013-2-12,50,39,35,34,14,1,85,41,16,29.94,29.68,30,6,30,0.04
2013-2-13,50,37,25,21,6,-4,61,29,14,29.91,29.68,12,2,12,0.04
2013-2-14,49,36,27,22,12,-1,69,42,14,29.97,29.71,11,2,12,0.08
2013-2-15,55,40,28,22,15,2,70,41,13,30.00,29.88,18,3,18,0.04
2013-2-16,40,33,27,26,8,-7,75,41,18,29.94,29.71,12,3,12,0.04
2013-2-17,33,23,14,-7,-14,-20,22,18,15,29.88,29.59,34,8,34,0.04
2013-2-18,36,24,14,-4,-13,-18,22,19,14,30.18,29.88,23,6,26,0.04
2013-2-19,47,35,22,34,13,-12,79,45,19,30.18,29.65,21,3,21,0.24
2013-2-20,36,30,22,21,-3,-12,53,24,17,29.91,29.65,30,9,30,0.04
2013-2-21,38,26,21,-2,-7,-11,33,23,16,30.27,29.88,28,8,28,0.04
2013-2-22,42,30,20,13,4,-4,48,34,18,30.39,30.24,12,2,12,0.04
2013-2-23,38,35,33,31,25,13,80,68,43,30.27,29.83,8,2,8,0.08
2013-2-24,42,36,32,34,23,8,85,62,34,29.94,29.74,15,3,15,0.04
2013-2-25,49,37,28,15,6,-2,48,29,14,30.24,29.91,16,3,16,0.00
2013-2-26,44,34,25,24,12,3,71,43,20,30.30,29.97,11,2,11,0.08
2013-2-27,44,39,33,38,33,24,83,80,71,29.97,29.50,16,4,16,0.94
2013-2-28,50,39,32,42,25,14,85,61,28,29.62,29.53,12,1,12,0.00
2013-3-1,140,38,34,24,14,4,59,38,20,29.74,29.56,15,3,15,0.00
2013-3-2,40,34,28,10,7,4,42,32,23,29.74,29.68,14,3,14,0.00
2013-3-3,35,30,26,10,4,-2,42,33,22,29.71,29.65,20,4,20,0.00
2013-3-4,44,33,26,6,1,-4,36,26,15,29.85,29.71,22,5,22,0.04
2013-3-5,49,37,28,10,4,-2,41,26,14,30.00,29.85,15,3,15,0.00
2013-3-6,40,37,35,28,16,8,64,42,31,30.00,29.91,18,5,18,0.00
2013-3-7,140,34,31,25,18,10,77,52,37,30.06,29.94,18,6,18,0.00
2013-3-8,37,33,29,25,17,7,79,55,31,30.18,29.97,16,5,16,0.04
2013-3-9,57,40,29,10,5,-4,42,25,12,30.33,30.15,16,3,16,0.16
2013-3-10,56,38,23,21,12,2,69,39,13,30.39,30.27,10,2,10,0.00
2013-3-11,56,44,35,40,27,20,77,54,26,30.30,30.09,13,3,13,0.00
2013-3-12,54,50,40,47,42,24,79,75,53,30.09,29.71,17,5,17,1.06
2013-3-13,54,42,32,25,10,-2,57,31,13,29.85,29.77,20,5,20,0.00
2013-3-14,38,32,28,14,0,-10,42,26,16,29.88,29.83,29,7,29,0.00
2013-3-19,41,36,32,30,23,13,75,60,44,29.77,29.65,20,4,22,0.35
2013-3-20,47,35,27,13,1,-6,42,25,14,29.83,29.74,24,6,24,0.00
2013-3-21,42,34,29,11,1,-9,43,26,16,29.83,29.62,14,3,14,0.00
2013-3-22,45,33,23,6,-3,-12,35,21,15,29.83,29.68,24,6,24,0.00
2013-3-23,48,38,31,8,1,-5,32,21,14,29.88,29.74,42,8,42,0.31
2013-3-24,49,37,26,9,0,-8,36,21,14,29.91,29.71,17,4,17,0.31
2013-3-25,45,38,32,14,6,2,45,27,17,29.71,29.44,12,4,12,0.31
2013-3-26,54,41,32,13,5,-5,36,23,13,29.83,29.56,19,3,19,0.00
2013-3-27,58,41,26,16,4,-4,47,24,12,29.91,29.83,19,3,19,0.00
2013-3-28,52,42,33,17,9,-5,39,27,16,30.09,29.91,14,4,16,0.00
2013-3-29,64,46,35,15,6,-1,39,21,10,30.12,30.00,18,4,18,0.00
2013-3-30,62,46,31,21,7,-5,52,24,11,30.15,30.03,16,2,16,0.00
2013-3-31,58,43,28,35,10,-6,72,29,12,30.12,29.68,19,3,19,0.04
2013-4-1,67,47,34,39,22,-6,77,43,12,29.85,29.59,27,6,27,0.12
2013-4-2,48,36,29,1,-5,-10,21,16,13,30.03,29.85,28,8,29,0.00
2013-4-3,51,38,29,3,-5,-11,18,16,13,30.27,30.00,29,8,29,0.00
2013-4-4,60,42,27,16,-1,-11,40,17,12,30.36,30.06,17,4,17,0.00
2013-4-5,66,48,38,16,6,-4,40,20,10,30.06,29.68,20,5,20,0.00
2013-4-6,54,41,31,4,-3,-10,22,15,13,30.30,29.94,21,4,23,0.00
2013-4-7,59,45,32,33,13,-3,62,31,12,30.30,30.00,19,4,20,0.00
2013-4-8,73,56,38,42,21,6,79,37,10,30.06,29.97,16,3,16,0.00
2013-4-9,81,64,48,46,24,6,75,29,10,30.00,29.88,29,4,33,0.00
2013-4-10,72,59,49,47,35,21,75,45,19,29.94,29.83,13,2,22,0.20
2013-4-11,60,52,45,49,36,24,80,55,31,30.06,29.80,11,2,11,0.04
2013-4-12,45,40,37,34,25,7,80,58,23,30.06,29.74,13,4,16,0.28
2013-4-13,59,46,36,35,21,7,80,45,14,29.94,29.74,14,3,14,0.04
2013-4-14,60,48,37,19,8,-2,37,20,11,30.21,29.94,22,4,23,0.24
2013-4-15,63,47,34,19,10,2,46,25,11,30.39,30.21,12,2,12,0.24
2013-4-16,68,52,39,45,30,14,67,43,22,30.36,30.09,16,3,16,0.00
2013-4-17,69,57,47,46,19,3,72,29,10,30.30,30.12,16,3,16,0.00
2013-4-18,64,52,40,38,20,5,65,33,11,30.36,30.12,15,3,16,0.00
2013-4-19,76,62,52,57,48,38,87,63,27,30.12,29.65,25,6,25,0.00
2013-4-20,63,53,41,54,19,-2,74,36,11,30.27,29.65,27,6,27,0.31
2013-4-21,58,44,32,8,2,-4,31,19,12,30.62,30.27,15,4,15,0.00
2013-4-22,60,45,32,28,12,1,62,30,12,30.68,30.50,15,3,15,0.00
2013-4-23,48,42,36,30,22,15,65,45,37,30.50,30.12,10,3,10,0.00
2013-4-24,77,56,41,41,26,13,67,39,10,30.12,29.83,15,4,15,0.00
2013-4-25,68,56,43,44,14,0,72,25,10,30.27,29.85,24,4,24,0.00
2013-4-26,70,52,34,23,10,1,54,22,10,30.42,30.27,15,2,15,0.00
2013-4-27,72,55,36,18,8,-1,42,17,10,30.42,30.27,18,2,18,0.00
2013-4-28,74,56,38,28,13,2,52,22,10,30.33,30.21,15,2,15,0.00
2013-4-29,59,54,49,33,22,3,49,30,14,30.24,30.21,10,2,10,0.00
2013-4-30,72,58,46,32,16,0,51,23,10,30.33,30.21,12,2,12,0.00
2013-5-1,75,56,36,24,14,3,51,23,10,30.47,30.33,13,2,13,0.00
2013-5-2,84,61,40,37,21,7,70,29,10,30.47,30.30,13,2,13,0.00
2013-5-3,74,59,48,30,14,5,48,19,10,30.45,30.33,11,2,11,0.00
2013-5-4,76,56,41,44,24,9,76,38,10,30.36,30.21,14,2,14,0.00
2013-5-5,74,53,38,35,22,7,75,38,10,30.30,30.21,12,2,12,0.00
2013-5-6,78,57,40,38,28,14,72,41,10,30.27,30.15,12,2,12,0.00
2013-5-7,79,62,44,48,33,16,76,42,10,30.18,30.09,11,2,11,0.04
2013-5-8,65,60,56,58,52,45,81,73,57,30.15,30.00,10,2,10,0.67
2013-5-9,65,58,53,54,48,42,83,71,48,30.03,29.88,7,0,7,0.08
2013-5-10,83,65,49,57,36,14,83,46,10,30.00,29.88,11,1,11,0.04
2013-5-11,66,62,59,56,52,38,81,69,41,29.88,29.71,14,2,15,0.28
2013-5-12,71,61,50,54,30,2,81,42,10,29.88,29.65,22,3,22,0.12
2013-5-13,62,49,38,21,7,-1,48,19,11,30.09,29.88,20,2,20,0.12
2013-5-14,66,49,35,24,12,2,57,28,10,30.09,30.00,15,1,15,0.12
2013-5-15,69,51,35,42,29,18,69,46,23,30.06,29.68,12,1,14,0.16
2013-5-16,87,66,46,51,29,8,80,37,10,29.83,29.71,20,2,20,0.12
2013-5-17,75,60,51,32,20,7,47,24,10,30.21,29.83,15,1,15,0.12
2013-5-18,72,57,44,42,29,11,73,41,11,30.30,30.21,12,1,12,0.12
2013-5-19,58,56,53,51,47,38,82,73,55,30.33,30.18,8,0,8,0.12
2013-5-20,86,68,56,59,48,33,83,57,16,30.18,29.97,14,2,14,0.08
2013-5-21,94,75,59,63,48,28,80,48,10,30.00,29.83,16,2,16,0.08
2013-5-22,86,68,58,57,52,43,78,60,25,29.94,29.85,10,2,10,0.04
2013-5-23,73,67,65,61,59,56,82,76,57,29.91,29.77,13,2,13,3.03
2013-5-24,65,56,45,59,48,34,83,74,49,29.91,29.68,15,3,15,0.47
2013-5-25,50,45,42,38,33,22,79,63,38,29.94,29.85,20,4,20,0.55
2013-5-26,65,52,44,29,20,5,55,30,10,30.18,29.88,29,4,29,0.00
2013-5-27,80,59,40,37,22,6,70,33,10,30.21,30.12,17,2,17,0.00
2013-5-28,70,54,46,51,37,13,79,58,12,30.24,30.15,10,0,10,0.24
2013-5-29,84,68,57,61,50,40,83,60,22,30.15,30.00,12,1,12,0.12
2013-5-30,96,85,70,64,38,24,78,23,10,30.12,30.06,13,2,13,0.00
2013-5-31,98,78,64,66,46,24,78,42,10,30.12,30.00,12,0,12,0.00
2013-6-1,94,77,65,60,46,27,72,43,10,30.03,29.91,12,2,12,0.00
2013-6-2,91,82,72,52,47,40,49,31,17,29.85,29.77,15,3,15,0.00
2013-6-3,82,70,64,61,57,41,81,66,25,29.85,29.80,10,1,11,0.71
2013-6-4,81,64,52,36,23,11,48,23,10,30.12,29.91,15,1,15,0.00
2013-6-5,80,62,49,40,27,11,66,33,10,30.21,30.12,9,0,9,0.00
2013-6-6,55,54,53,35,34,34,49,47,45,30.15,30.15,0,0,0,0.00
2013-6-13,56,54,53,51,49,48,84,84,82,29.59,29.56,7,3,8,1.54
2013-6-14,78,60,51,52,44,28,85,61,17,29.88,29.59,9,1,9,1.14
2013-6-15,85,70,55,56,31,14,79,32,10,30.00,29.88,13,2,13,0.04
2013-6-16,76,59,53,53,44,25,73,61,15,30.00,29.88,8,0,8,0.04
2013-6-17,90,73,61,61,42,16,78,41,10,29.94,29.83,15,2,15,0.04
2013-6-18,83,67,60,58,52,41,80,62,24,29.94,29.83,7,0,7,0.12
2013-6-19,81,70,57,55,27,13,80,25,10,30.18,29.91,14,2,14,0.00
2013-6-20,86,66,51,51,34,16,73,39,10,30.27,30.18,10,1,10,0.00
2013-6-21,87,71,56,50,35,22,70,32,10,30.30,30.24,12,2,13,0.00
2013-6-22,88,72,58,50,36,23,68,32,10,30.27,30.15,10,2,13,0.00
2013-6-23,94,76,61,57,44,25,69,38,10,30.18,30.06,13,2,13,0.00
2013-6-24,96,78,68,64,51,27,76,47,10,30.09,29.94,17,2,17,0.08
2013-6-25,95,78,66,66,50,26,80,47,10,30.00,29.80,16,2,16,0.04
2013-6-26,80,75,69,61,54,46,74,49,32,29.85,29.77,12,1,12,0.00
2013-6-27,86,73,68,66,59,49,81,64,29,29.85,29.62,11,0,11,0.35
2013-6-28,87,76,70,66,59,42,84,59,23,29.62,29.50,12,2,12,0.39
2013-6-29,88,75,67,62,53,37,77,52,19,29.71,29.50,13,2,13,0.00
2013-6-30,84,77,72,67,61,54,77,59,37,29.94,29.83,10,1,11,0.00
2013-7-1,75,73,71,67,65,62,80,76,70,30.06,29.94,9,1,9,0.91
2013-7-2,83,74,71,68,64,54,82,74,37,30.15,30.06,10,2,10,0.04
2013-7-3,87,80,72,64,56,48,70,46,28,30.27,30.18,13,2,14,0.00
2013-7-4,93,81,73,68,58,41,79,50,17,30.27,30.15,17,3,17,0.00
2013-7-5,96,82,73,65,54,30,69,44,11,30.21,30.09,15,2,15,0.00
2013-7-6,96,83,76,64,52,31,65,40,11,30.15,30.03,13,3,13,0.00
2013-7-7,96,82,72,70,59,38,80,52,16,30.06,29.91,10,1,10,0.00
2013-7-8,93,80,71,62,48,28,62,36,10,30.06,29.97,12,2,14,0.00
2013-7-9,90,74,68,68,59,44,83,64,22,30.09,30.00,12,0,12,1.50
2013-7-10,87,76,69,70,64,51,86,69,31,30.03,29.83,10,1,10,0.39
2013-7-11,85,75,68,69,59,46,81,60,29,29.94,29.80,8,0,8,0.08
2013-7-12,79,71,64,59,52,43,79,54,31,30.15,29.94,6,0,6,0.00
2013-7-13,77,70,64,66,60,54,77,71,62,30.30,30.15,4,0,6,0.04
2013-7-14,94,80,72,70,59,41,82,54,17,30.33,30.24,9,1,9,0.00
2013-7-15,96,82,72,67,55,32,73,45,11,30.24,30.15,11,1,12,0.00
2013-7-16,96,80,70,63,51,27,74,44,10,30.21,30.15,13,1,13,0.00
2013-7-17,98,82,70,68,52,29,79,45,10,30.21,30.06,9,0,9,0.00
2013-7-18,98,83,73,72,56,32,80,47,10,30.09,29.97,10,1,10,0.08
2013-7-19,99,86,74,70,54,32,79,41,10,29.97,29.80,18,3,19,0.00
2013-7-20,94,84,74,58,52,37,54,35,14,29.85,29.74,19,2,19,0.00
2013-7-21,90,76,68,65,52,30,77,48,13,30.00,29.85,4,0,4,0.16
2013-7-22,85,74,67,66,61,54,79,66,38,30.00,29.85,8,0,8,0.04
2013-7-23,90,76,72,69,62,42,84,67,19,29.85,29.56,19,1,19,1.22
2013-7-24,82,73,63,68,52,35,82,53,23,29.97,29.62,10,1,11,0.00
2013-7-25,65,62,60,52,41,34,73,46,35,30.09,29.97,4,0,4,0.04
2013-7-26,85,69,61,59,50,33,82,57,16,30.06,30.00,8,0,8,0.00
2013-7-27,87,71,61,62,47,28,80,50,13,30.06,30.00,10,1,10,0.00
2013-7-28,79,70,64,63,55,45,80,61,31,30.03,29.94,10,0,10,0.00
2013-7-29,88,75,67,66,46,18,82,48,10,30.09,29.97,16,1,16,0.04
2013-7-30,86,70,59,51,37,18,66,35,10,30.18,30.09,12,1,12,0.04
2013-7-31,86,70,59,57,43,20,77,46,10,30.18,30.06,10,0,10,0.04
2013-8-1,76,67,62,61,54,44,77,65,34,30.06,29.91,9,1,10,0.20
2013-8-2,86,73,65,62,47,20,83,50,10,29.91,29.80,14,1,14,0.20
2013-8-3,82,70,64,58,48,38,72,48,23,29.91,29.85,13,2,13,0.20
2013-8-4,84,68,59,58,43,14,79,48,10,29.97,29.85,13,1,13,0.20
2013-8-5,83,66,55,49,32,14,73,35,10,30.06,29.97,15,1,15,0.20
2013-8-6,85,67,52,53,39,18,78,45,10,30.15,30.06,10,0,10,0.00
2013-8-7,80,68,58,58,48,35,77,53,22,30.18,30.09,10,1,10,0.00
2013-8-8,85,74,69,64,59,50,78,62,31,30.09,30.03,12,2,12,0.00
2013-8-9,83,74,71,70,65,56,83,72,42,30.03,29.80,14,3,14,0.91
2013-8-10,87,73,63,64,47,19,81,49,10,30.06,29.85,13,1,13,0.00
2013-8-11,84,68,56,51,38,17,69,41,10,30.15,30.03,9,0,9,0.00
2013-8-12,86,71,61,59,45,23,78,47,11,30.06,29.94,7,0,7,0.00
2013-8-13,80,69,64,64,57,46,81,66,32,29.94,29.71,8,1,8,0.16
2013-8-14,78,66,58,56,34,14,72,36,10,30.03,29.77,23,3,23,0.00
2013-8-15,81,64,52,52,34,14,77,43,10,30.15,30.03,12,1,12,0.00
2013-8-16,81,65,54,54,40,17,78,47,12,30.21,30.15,8,0,8,0.00
2013-8-17,85,67,55,57,44,22,79,51,11,30.30,30.21,4,0,4,0.00
2013-8-18,76,66,60,59,50,38,79,59,26,30.30,30.15,4,0,4,0.00
2013-8-19,78,68,59,59,48,35,80,53,21,30.15,30.03,8,1,8,0.00
2013-8-20,89,72,60,62,47,23,80,50,10,30.15,30.06,10,1,10,0.00
2013-8-21,91,74,63,66,48,24,80,50,10,30.18,30.06,9,0,9,0.00
2013-8-22,79,72,65,66,59,54,80,65,42,30.09,29.88,10,1,10,0.12
2013-8-23,84,71,61,64,46,22,80,47,11,30.12,29.88,12,1,12,0.00
2013-8-24,83,66,53,48,37,16,75,44,10,30.36,30.12,7,0,7,0.00
2013-8-25,87,67,54,55,38,14,80,47,10,30.42,30.24,11,0,11,0.00
2013-8-26,75,69,63,62,49,40,77,49,31,30.24,29.94,12,1,12,0.12
2013-8-27,87,74,68,66,57,38,83,61,20,29.94,29.83,11,1,11,0.67
2013-8-28,87,72,66,69,57,43,81,63,24,29.91,29.85,13,0,13,0.00
2013-8-29,81,71,67,62,55,43,81,61,28,30.06,29.91,4,0,4,0.00
2013-8-30,88,73,66,61,52,34,76,52,15,30.06,29.85,11,1,11,0.00
2013-8-31,84,76,71,64,60,54,71,58,37,29.88,29.80,12,2,12,0.00
2013-9-1,83,76,72,68,63,56,79,64,41,29.88,29.83,8,1,8,0.00
2013-9-2,80,73,69,69,64,56,83,74,45,29.85,29.71,9,0,9,0.35
2013-9-3,80,70,62,66,53,29,85,60,18,29.88,29.74,14,1,14,0.04
2013-9-4,83,68,57,56,38,19,78,43,10,30.00,29.88,10,1,12,0.00
2013-9-5,77,65,52,55,35,11,76,41,10,30.15,29.91,13,1,13,0.00
2013-9-6,75,58,47,43,28,9,74,39,10,30.27,30.15,9,0,9,0.00
2013-9-7,82,62,46,50,33,14,79,43,10,30.15,29.91,10,1,10,0.00
2013-9-8,81,68,56,47,34,13,56,32,10,30.09,29.83,15,1,15,0.00
2013-9-9,75,59,46,46,31,14,75,42,10,30.27,30.09,9,0,9,0.00
2013-9-10,84,70,58,64,56,44,80,63,33,30.18,30.06,13,2,13,0.08
2013-9-11,97,81,69,68,57,44,79,51,17,30.12,30.00,12,1,12,0.00
2013-9-12,89,74,68,66,59,47,80,63,24,30.00,29.71,11,1,16,0.51
2013-9-13,78,67,57,62,49,32,82,57,22,29.85,29.65,13,1,13,0.04
2013-9-14,69,58,51,40,32,24,65,40,20,30.12,29.83,14,2,14,0.00
2013-9-15,75,57,44,48,33,13,78,50,10,30.21,30.09,10,0,10,0.00
2013-9-16,71,58,52,54,41,29,80,57,23,30.27,30.03,10,0,10,0.00
2013-9-17,69,54,41,35,23,7,70,37,10,30.45,30.27,8,0,8,0.00
2013-9-18,56,55,54,35,34,33,48,45,42,30.21,30.18,0,0,0,0.00
2013-9-19,82,67,47,54,33,14,81,39,10,30.18,30.06,9,0,9,0.00
2013-9-20,84,62,50,58,40,18,81,54,10,30.12,30.00,8,0,8,0.00
2013-9-21,74,64,54,61,53,47,81,68,43,30.03,29.68,12,2,12,0.16
2013-9-22,72,62,52,61,39,18,82,49,16,29.91,29.65,15,2,15,0.87
2013-9-23,67,54,44,35,24,11,61,36,12,30.06,29.91,15,2,17,0.16
2013-9-24,74,54,41,39,29,12,75,46,10,30.06,29.85,17,1,17,0.16
2013-9-25,75,57,43,45,34,14,78,52,10,29.97,29.88,10,0,10,0.16
2013-9-26,74,59,52,51,41,19,81,57,14,30.12,29.97,10,0,10,0.16
2013-9-27,63,55,47,52,42,35,83,64,36,30.30,30.12,4,0,4,0.16
2013-9-28,76,59,47,55,40,15,84,58,13,30.36,30.27,6,0,6,0.16
2013-9-29,74,58,50,56,41,27,83,60,18,30.27,30.09,4,0,5,0.16
2013-9-30,77,58,47,54,38,15,83,56,10,30.12,29.97,7,0,7,0.16
2013-10-1,81,61,49,59,42,19,82,58,10,30.03,29.91,7,0,8,0.16
2013-10-2,84,66,50,60,43,28,82,50,14,30.03,29.91,12,1,12,0.16
2013-10-3,80,63,50,53,39,14,79,50,10,30.15,30.03,10,0,10,0.16
2013-10-4,86,66,56,59,49,37,80,59,19,30.09,29.97,11,1,11,0.16
2013-10-5,81,67,60,57,51,38,76,59,23,30.12,30.03,6,0,6,0.16
2013-10-6,65,62,60,58,57,55,86,83,74,30.15,30.06,8,1,8,0.20
2013-10-7,75,66,58,64,56,39,87,73,44,30.06,29.77,15,3,18,0.28
2013-10-8,68,55,47,44,31,11,78,47,12,30.36,29.97,11,1,11,0.16
2013-10-9,66,51,41,43,33,20,82,55,17,30.45,30.33,6,0,6,0.16
2013-10-10,61,54,47,42,39,36,75,59,40,30.33,30.15,5,0,5,0.16
2013-10-11,68,60,53,49,43,39,72,55,35,30.15,30.06,5,0,5,0.16
2013-10-12,70,53,47,46,38,28,78,60,23,30.24,30.12,6,0,6,0.16